sensor_id;sensor_type;location;lat;lon;timestamp;temperature;humidity
76789;DHT22;65740;52.464;13.446;2023-10-09T00:00:50;17.60;54.60
76789;DHT22;65740;52.464;13.446;2023-10-09T00:03:19;17.60;54.60
76789;DHT22;65740;52.464;13.446;2023-10-09T00:05:48;17.60;55.20
76789;DHT22;65740;52.464;13.446;2023-10-09T00:08:15;17.60;54.60
76789;DHT22;65740;52.464;13.446;2023-10-09T00:10:48;17.60;54.60
76789;DHT22;65740;52.464;13.446;2023-10-09T00:13:21;17.50;54.50
76789;DHT22;65740;52.464;13.446;2023-10-09T00:15:53;17.60;54.60
76789;DHT22;65740;52.464;13.446;2023-10-09T00:18:23;17.60;54.60
76789;DHT22;65740;52.464;13.446;2023-10-09T00:20:55;17.50;54.40
76789;DHT22;65740;52.464;13.446;2023-10-09T00:23:26;17.50;54.50
76789;DHT22;65740;52.464;13.446;2023-10-09T00:25:53;17.50;54.40
76789;DHT22;65740;52.464;13.446;2023-10-09T00:28:35;17.50;54.40
76789;DHT22;65740;52.464;13.446;2023-10-09T00:31:03;17.50;54.40
76789;DHT22;65740;52.464;13.446;2023-10-09T00:33:32;17.50;55.10
76789;DHT22;65740;52.464;13.446;2023-10-09T00:36:02;17.50;54.40
76789;DHT22;65740;52.464;13.446;2023-10-09T00:38:38;17.50;54.40
76789;DHT22;65740;52.464;13.446;2023-10-09T00:41:14;17.50;54.40
76789;DHT22;65740;52.464;13.446;2023-10-09T00:43:46;17.50;54.40
76789;DHT22;65740;52.464;13.446;2023-10-09T00:46:16;17.60;54.40
76789;DHT22;65740;52.464;13.446;2023-10-09T00:48:53;17.50;54.30
76789;DHT22;65740;52.464;13.446;2023-10-09T00:51:20;17.40;54.30
76789;DHT22;65740;52.464;13.446;2023-10-09T00:53:52;17.50;54.30
76789;DHT22;65740;52.464;13.446;2023-10-09T00:56:22;17.40;54.20
76789;DHT22;65740;52.464;13.446;2023-10-09T00:58:53;17.40;54.30
76789;DHT22;65740;52.464;13.446;2023-10-09T01:01:24;17.40;54.30
76789;DHT22;65740;52.464;13.446;2023-10-09T01:04:13;17.40;54.20
76789;DHT22;65740;52.464;13.446;2023-10-09T01:06:44;17.40;54.20
76789;DHT22;65740;52.464;13.446;2023-10-09T01:09:14;17.50;54.30
76789;DHT22;65740;52.464;13.446;2023-10-09T01:11:42;17.40;54.20
76789;DHT22;65740;52.464;13.446;2023-10-09T01:14:17;17.40;54.20
76789;DHT22;65740;52.464;13.446;2023-10-09T01:16:46;17.40;54.20
76789;DHT22;65740;52.464;13.446;2023-10-09T01:19:13;17.40;54.20
76789;DHT22;65740;52.464;13.446;2023-10-09T01:21:45;17.40;54.10
76789;DHT22;65740;52.464;13.446;2023-10-09T01:24:11;17.40;54.20
76789;DHT22;65740;52.464;13.446;2023-10-09T01:26:38;17.40;54.20
76789;DHT22;65740;52.464;13.446;2023-10-09T01:29:10;17.40;54.20
76789;DHT22;65740;52.464;13.446;2023-10-09T01:31:46;17.40;54.20
76789;DHT22;65740;52.464;13.446;2023-10-09T01:34:22;17.40;54.20
76789;DHT22;65740;52.464;13.446;2023-10-09T01:37:12;17.40;54.10
76789;DHT22;65740;52.464;13.446;2023-10-09T01:39:48;17.40;54.20
76789;DHT22;65740;52.464;13.446;2023-10-09T01:42:15;17.40;54.10
76789;DHT22;65740;52.464;13.446;2023-10-09T01:44:50;17.40;54.10
76789;DHT22;65740;52.464;13.446;2023-10-09T01:47:17;17.30;54.00
76789;DHT22;65740;52.464;13.446;2023-10-09T01:49:44;17.30;54.00
76789;DHT22;65740;52.464;13.446;2023-10-09T01:52:15;17.30;54.00
76789;DHT22;65740;52.464;13.446;2023-10-09T01:54:41;17.40;54.10
76789;DHT22;65740;52.464;13.446;2023-10-09T01:57:12;17.30;54.00
76789;DHT22;65740;52.464;13.446;2023-10-09T01:59:39;17.30;54.00
76789;DHT22;65740;52.464;13.446;2023-10-09T02:02:10;17.30;54.00
76789;DHT22;65740;52.464;13.446;2023-10-09T02:04:40;17.30;54.00
76789;DHT22;65740;52.464;13.446;2023-10-09T02:07:08;17.30;54.00
76789;DHT22;65740;52.464;13.446;2023-10-09T02:09:34;17.30;54.00
76789;DHT22;65740;52.464;13.446;2023-10-09T02:12:01;17.40;54.10
76789;DHT22;65740;52.464;13.446;2023-10-09T02:14:27;17.30;54.00
76789;DHT22;65740;52.464;13.446;2023-10-09T02:16:53;17.30;54.00
76789;DHT22;65740;52.464;13.446;2023-10-09T02:19:31;17.30;53.90
76789;DHT22;65740;52.464;13.446;2023-10-09T02:22:03;17.30;54.00
76789;DHT22;65740;52.464;13.446;2023-10-09T02:24:45;17.30;53.90
76789;DHT22;65740;52.464;13.446;2023-10-09T02:27:14;17.30;53.90
76789;DHT22;65740;52.464;13.446;2023-10-09T02:29:46;17.30;53.90
76789;DHT22;65740;52.464;13.446;2023-10-09T02:32:13;17.30;53.90
76789;DHT22;65740;52.464;13.446;2023-10-09T02:34:40;17.20;53.80
76789;DHT22;65740;52.464;13.446;2023-10-09T02:37:06;17.20;53.80
76789;DHT22;65740;52.464;13.446;2023-10-09T02:39:36;17.20;53.80
76789;DHT22;65740;52.464;13.446;2023-10-09T02:42:05;17.20;53.80
76789;DHT22;65740;52.464;13.446;2023-10-09T02:44:49;17.30;53.90
76789;DHT22;65740;52.464;13.446;2023-10-09T02:47:20;17.20;53.70
76789;DHT22;65740;52.464;13.446;2023-10-09T02:49:50;17.20;54.40
76789;DHT22;65740;52.464;13.446;2023-10-09T02:52:16;17.20;53.80
76789;DHT22;65740;52.464;13.446;2023-10-09T02:54:45;17.20;53.80
76789;DHT22;65740;52.464;13.446;2023-10-09T02:57:13;17.20;53.80
76789;DHT22;65740;52.464;13.446;2023-10-09T02:59:49;17.20;53.80
76789;DHT22;65740;52.464;13.446;2023-10-09T03:02:17;17.20;53.70
76789;DHT22;65740;52.464;13.446;2023-10-09T03:04:43;17.20;53.70
76789;DHT22;65740;52.464;13.446;2023-10-09T03:07:09;17.20;53.80
76789;DHT22;65740;52.464;13.446;2023-10-09T03:09:36;17.20;53.70
76789;DHT22;65740;52.464;13.446;2023-10-09T03:12:03;17.20;53.70
76789;DHT22;65740;52.464;13.446;2023-10-09T03:14:36;17.20;53.70
76789;DHT22;65740;52.464;13.446;2023-10-09T03:17:04;17.20;53.70
76789;DHT22;65740;52.464;13.446;2023-10-09T03:19:31;17.20;53.70
76789;DHT22;65740;52.464;13.446;2023-10-09T03:22:03;17.20;53.70
76789;DHT22;65740;52.464;13.446;2023-10-09T03:24:28;17.20;53.70
76789;DHT22;65740;52.464;13.446;2023-10-09T03:26:56;17.20;53.70
76789;DHT22;65740;52.464;13.446;2023-10-09T03:29:25;17.10;54.30
76789;DHT22;65740;52.464;13.446;2023-10-09T03:31:52;17.20;53.70
76789;DHT22;65740;52.464;13.446;2023-10-09T03:34:19;17.10;53.60
76789;DHT22;65740;52.464;13.446;2023-10-09T03:36:47;17.10;53.60
76789;DHT22;65740;52.464;13.446;2023-10-09T03:39:14;17.10;53.60
76789;DHT22;65740;52.464;13.446;2023-10-09T03:41:58;17.10;53.60
76789;DHT22;65740;52.464;13.446;2023-10-09T03:44:25;17.10;53.60
76789;DHT22;65740;52.464;13.446;2023-10-09T03:46:54;17.10;53.60
76789;DHT22;65740;52.464;13.446;2023-10-09T03:49:19;17.10;53.60
76789;DHT22;65740;52.464;13.446;2023-10-09T03:51:50;17.10;53.60
76789;DHT22;65740;52.464;13.446;2023-10-09T03:54:16;17.10;53.60
76789;DHT22;65740;52.464;13.446;2023-10-09T03:56:52;17.10;53.50
76789;DHT22;65740;52.464;13.446;2023-10-09T03:59:20;17.10;53.60
76789;DHT22;65740;52.464;13.446;2023-10-09T04:01:47;17.10;53.60
76789;DHT22;65740;52.464;13.446;2023-10-09T04:04:16;17.10;53.70
76789;DHT22;65740;52.464;13.446;2023-10-09T04:06:41;17.10;53.70
76789;DHT22;65740;52.464;13.446;2023-10-09T04:09:09;17.10;53.60
76789;DHT22;65740;52.464;13.446;2023-10-09T04:11:51;17.10;53.70
76789;DHT22;65740;52.464;13.446;2023-10-09T04:14:36;17.10;53.70
76789;DHT22;65740;52.464;13.446;2023-10-09T04:17:02;17.10;53.60
76789;DHT22;65740;52.464;13.446;2023-10-09T04:19:34;17.10;53.60
76789;DHT22;65740;52.464;13.446;2023-10-09T04:22:13;17.10;53.60
76789;DHT22;65740;52.464;13.446;2023-10-09T04:24:52;17.10;53.60
76789;DHT22;65740;52.464;13.446;2023-10-09T04:27:18;17.10;53.60
76789;DHT22;65740;52.464;13.446;2023-10-09T04:29:52;17.10;53.60
76789;DHT22;65740;52.464;13.446;2023-10-09T04:32:20;17.10;53.60
76789;DHT22;65740;52.464;13.446;2023-10-09T04:34:50;17.10;53.60
76789;DHT22;65740;52.464;13.446;2023-10-09T04:37:22;17.00;53.50
76789;DHT22;65740;52.464;13.446;2023-10-09T04:40:08;17.00;53.50
76789;DHT22;65740;52.464;13.446;2023-10-09T04:42:57;17.00;53.50
76789;DHT22;65740;52.464;13.446;2023-10-09T04:45:31;17.00;53.50
76789;DHT22;65740;52.464;13.446;2023-10-09T04:48:09;17.00;53.40
76789;DHT22;65740;52.464;13.446;2023-10-09T04:50:35;17.00;53.40
76789;DHT22;65740;52.464;13.446;2023-10-09T04:53:04;17.00;53.50
76789;DHT22;65740;52.464;13.446;2023-10-09T04:55:42;17.00;53.40
76789;DHT22;65740;52.464;13.446;2023-10-09T04:58:20;17.00;53.40
76789;DHT22;65740;52.464;13.446;2023-10-09T05:00:52;17.00;53.40
76789;DHT22;65740;52.464;13.446;2023-10-09T05:03:24;17.00;53.50
76789;DHT22;65740;52.464;13.446;2023-10-09T05:06:09;17.00;53.40
76789;DHT22;65740;52.464;13.446;2023-10-09T05:08:49;17.00;53.40
76789;DHT22;65740;52.464;13.446;2023-10-09T05:11:22;17.00;53.40
76789;DHT22;65740;52.464;13.446;2023-10-09T05:14:02;17.00;53.40
76789;DHT22;65740;52.464;13.446;2023-10-09T05:16:50;17.00;53.40
76789;DHT22;65740;52.464;13.446;2023-10-09T05:19:26;17.00;53.40
76789;DHT22;65740;52.464;13.446;2023-10-09T05:22:11;17.00;53.50
76789;DHT22;65740;52.464;13.446;2023-10-09T05:24:58;17.00;53.50
76789;DHT22;65740;52.464;13.446;2023-10-09T05:27:26;17.00;53.50
76789;DHT22;65740;52.464;13.446;2023-10-09T05:30:11;17.00;53.50
76789;DHT22;65740;52.464;13.446;2023-10-09T05:32:53;17.00;53.40
76789;DHT22;65740;52.464;13.446;2023-10-09T05:35:24;17.00;53.40
76789;DHT22;65740;52.464;13.446;2023-10-09T05:38:08;17.00;53.40
76789;DHT22;65740;52.464;13.446;2023-10-09T05:40:49;16.90;53.40
76789;DHT22;65740;52.464;13.446;2023-10-09T05:43:20;16.90;53.30
76789;DHT22;65740;52.464;13.446;2023-10-09T05:46:04;16.90;53.30
76789;DHT22;65740;52.464;13.446;2023-10-09T05:48:33;16.90;53.40
76789;DHT22;65740;52.464;13.446;2023-10-09T05:51:19;16.90;53.30
76789;DHT22;65740;52.464;13.446;2023-10-09T05:54:04;16.90;53.40
76789;DHT22;65740;52.464;13.446;2023-10-09T05:56:49;16.90;53.30
76789;DHT22;65740;52.464;13.446;2023-10-09T05:59:37;16.90;53.30
76789;DHT22;65740;52.464;13.446;2023-10-09T06:02:21;16.90;53.30
76789;DHT22;65740;52.464;13.446;2023-10-09T06:05:13;16.90;53.30
76789;DHT22;65740;52.464;13.446;2023-10-09T06:07:59;16.90;53.20
76789;DHT22;65740;52.464;13.446;2023-10-09T06:10:32;16.90;53.20
76789;DHT22;65740;52.464;13.446;2023-10-09T06:13:04;16.90;53.30
76789;DHT22;65740;52.464;13.446;2023-10-09T06:15:38;16.90;53.20
76789;DHT22;65740;52.464;13.446;2023-10-09T06:18:13;16.90;53.30
76789;DHT22;65740;52.464;13.446;2023-10-09T06:20:57;16.90;53.20
76789;DHT22;65740;52.464;13.446;2023-10-09T06:23:34;16.90;53.20
76789;DHT22;65740;52.464;13.446;2023-10-09T06:26:18;16.90;53.20
76789;DHT22;65740;52.464;13.446;2023-10-09T06:28:50;16.90;53.20
76789;DHT22;65740;52.464;13.446;2023-10-09T06:31:36;16.90;53.20
76789;DHT22;65740;52.464;13.446;2023-10-09T06:34:21;16.90;53.20
76789;DHT22;65740;52.464;13.446;2023-10-09T06:36:58;16.90;53.20
76789;DHT22;65740;52.464;13.446;2023-10-09T06:39:28;16.90;53.20
76789;DHT22;65740;52.464;13.446;2023-10-09T06:42:12;16.90;53.30
76789;DHT22;65740;52.464;13.446;2023-10-09T06:45:00;16.90;53.20
76789;DHT22;65740;52.464;13.446;2023-10-09T06:47:30;16.90;53.20
76789;DHT22;65740;52.464;13.446;2023-10-09T06:50:02;16.90;53.10
76789;DHT22;65740;52.464;13.446;2023-10-09T06:52:54;16.90;53.20
76789;DHT22;65740;52.464;13.446;2023-10-09T06:55:26;16.90;53.10
76789;DHT22;65740;52.464;13.446;2023-10-09T06:58:00;16.90;53.00
76789;DHT22;65740;52.464;13.446;2023-10-09T07:00:41;16.90;54.20
76789;DHT22;65740;52.464;13.446;2023-10-09T07:03:26;16.90;54.00
76789;DHT22;65740;52.464;13.446;2023-10-09T07:06:08;16.90;53.20
76789;DHT22;65740;52.464;13.446;2023-10-09T07:11:32;16.90;53.60
76789;DHT22;65740;52.464;13.446;2023-10-09T07:16:59;16.90;53.90
76789;DHT22;65740;52.464;13.446;2023-10-09T07:19:26;16.90;53.80
76789;DHT22;65740;52.464;13.446;2023-10-09T07:22:07;16.90;53.80
76789;DHT22;65740;52.464;13.446;2023-10-09T07:24:52;16.90;53.80
76789;DHT22;65740;52.464;13.446;2023-10-09T07:27:39;17.00;53.80
76789;DHT22;65740;52.464;13.446;2023-10-09T07:30:20;17.00;53.90
76789;DHT22;65740;52.464;13.446;2023-10-09T07:33:02;17.00;53.80
76789;DHT22;65740;52.464;13.446;2023-10-09T07:35:38;17.00;53.80
76789;DHT22;65740;52.464;13.446;2023-10-09T07:38:14;17.00;54.00
76789;DHT22;65740;52.464;13.446;2023-10-09T07:40:41;17.00;53.80
76789;DHT22;65740;52.464;13.446;2023-10-09T07:43:31;17.00;53.90
76789;DHT22;65740;52.464;13.446;2023-10-09T07:46:19;17.00;53.80
76789;DHT22;65740;52.464;13.446;2023-10-09T07:49:20;17.00;53.80
76789;DHT22;65740;52.464;13.446;2023-10-09T07:51:53;17.00;53.70
76789;DHT22;65740;52.464;13.446;2023-10-09T07:54:19;17.10;53.90
76789;DHT22;65740;52.464;13.446;2023-10-09T07:57:05;17.00;53.70
76789;DHT22;65740;52.464;13.446;2023-10-09T07:59:41;17.00;53.60
76789;DHT22;65740;52.464;13.446;2023-10-09T08:02:23;17.00;53.60
76789;DHT22;65740;52.464;13.446;2023-10-09T08:04:59;17.00;53.70
76789;DHT22;65740;52.464;13.446;2023-10-09T08:07:47;17.10;53.90
76789;DHT22;65740;52.464;13.446;2023-10-09T08:10:22;17.10;54.00
76789;DHT22;65740;52.464;13.446;2023-10-09T08:12:48;17.00;53.60
76789;DHT22;65740;52.464;13.446;2023-10-09T08:15:22;17.00;53.90
76789;DHT22;65740;52.464;13.446;2023-10-09T08:17:56;17.00;53.90
76789;DHT22;65740;52.464;13.446;2023-10-09T08:20:26;17.00;54.20
76789;DHT22;65740;52.464;13.446;2023-10-09T08:22:52;17.00;54.50
76789;DHT22;65740;52.464;13.446;2023-10-09T08:25:22;17.10;54.50
76789;DHT22;65740;52.464;13.446;2023-10-09T08:27:58;17.10;54.40
76789;DHT22;65740;52.464;13.446;2023-10-09T08:30:45;17.10;54.10
76789;DHT22;65740;52.464;13.446;2023-10-09T08:33:31;17.10;54.10
76789;DHT22;65740;52.464;13.446;2023-10-09T08:36:00;17.10;54.10
76789;DHT22;65740;52.464;13.446;2023-10-09T08:38:33;17.10;54.00
76789;DHT22;65740;52.464;13.446;2023-10-09T08:41:10;17.10;54.10
76789;DHT22;65740;52.464;13.446;2023-10-09T08:43:52;17.10;54.10
76789;DHT22;65740;52.464;13.446;2023-10-09T08:46:20;17.10;54.20
76789;DHT22;65740;52.464;13.446;2023-10-09T08:48:48;17.10;54.30
76789;DHT22;65740;52.464;13.446;2023-10-09T08:51:14;17.10;54.20
76789;DHT22;65740;52.464;13.446;2023-10-09T08:53:40;17.10;54.20
76789;DHT22;65740;52.464;13.446;2023-10-09T08:56:14;17.10;54.10
76789;DHT22;65740;52.464;13.446;2023-10-09T08:58:48;17.10;54.10
76789;DHT22;65740;52.464;13.446;2023-10-09T09:01:19;17.10;54.10
76789;DHT22;65740;52.464;13.446;2023-10-09T09:03:48;17.10;54.10
76789;DHT22;65740;52.464;13.446;2023-10-09T09:06:15;17.10;54.10
76789;DHT22;65740;52.464;13.446;2023-10-09T09:08:43;17.10;54.20
76789;DHT22;65740;52.464;13.446;2023-10-09T09:11:14;17.10;54.50
76789;DHT22;65740;52.464;13.446;2023-10-09T09:16:18;17.10;54.50
76789;DHT22;65740;52.464;13.446;2023-10-09T09:21:27;17.10;54.80
76789;DHT22;65740;52.464;13.446;2023-10-09T09:23:57;17.10;54.80
76789;DHT22;65740;52.464;13.446;2023-10-09T09:26:38;17.10;55.00
76789;DHT22;65740;52.464;13.446;2023-10-09T09:29:11;17.10;55.30
76789;DHT22;65740;52.464;13.446;2023-10-09T09:31:36;17.20;55.00
76789;DHT22;65740;52.464;13.446;2023-10-09T09:34:07;17.20;55.00
76789;DHT22;65740;52.464;13.446;2023-10-09T09:36:58;17.20;55.10
76789;DHT22;65740;52.464;13.446;2023-10-09T09:39:27;17.20;55.00
76789;DHT22;65740;52.464;13.446;2023-10-09T09:41:58;17.20;55.20
76789;DHT22;65740;52.464;13.446;2023-10-09T09:44:36;17.20;55.00
76789;DHT22;65740;52.464;13.446;2023-10-09T09:47:12;17.30;55.20
76789;DHT22;65740;52.464;13.446;2023-10-09T09:49:42;17.30;54.90
76789;DHT22;65740;52.464;13.446;2023-10-09T09:52:09;17.30;54.90
76789;DHT22;65740;52.464;13.446;2023-10-09T09:54:38;17.30;54.80
76789;DHT22;65740;52.464;13.446;2023-10-09T09:57:07;17.20;54.70
76789;DHT22;65740;52.464;13.446;2023-10-09T09:59:41;17.20;54.80
76789;DHT22;65740;52.464;13.446;2023-10-09T10:02:20;17.20;54.80
76789;DHT22;65740;52.464;13.446;2023-10-09T10:04:47;17.30;54.90
76789;DHT22;65740;52.464;13.446;2023-10-09T10:07:16;17.20;54.80
76789;DHT22;65740;52.464;13.446;2023-10-09T10:09:46;17.30;55.00
76789;DHT22;65740;52.464;13.446;2023-10-09T10:12:15;17.30;54.90
76789;DHT22;65740;52.464;13.446;2023-10-09T10:15:00;17.30;55.00
76789;DHT22;65740;52.464;13.446;2023-10-09T10:20:25;17.30;55.10
76789;DHT22;65740;52.464;13.446;2023-10-09T10:23:14;17.30;55.10
76789;DHT22;65740;52.464;13.446;2023-10-09T10:25:43;17.30;55.00
76789;DHT22;65740;52.464;13.446;2023-10-09T10:28:19;17.30;55.10
76789;DHT22;65740;52.464;13.446;2023-10-09T10:30:54;17.30;54.90
76789;DHT22;65740;52.464;13.446;2023-10-09T10:33:21;17.30;55.50
76789;DHT22;65740;52.464;13.446;2023-10-09T10:35:48;17.30;54.80
76789;DHT22;65740;52.464;13.446;2023-10-09T10:38:33;17.30;55.00
76789;DHT22;65740;52.464;13.446;2023-10-09T10:41:18;17.30;54.80
76789;DHT22;65740;52.464;13.446;2023-10-09T10:43:50;17.30;55.60
76789;DHT22;65740;52.464;13.446;2023-10-09T10:46:16;17.30;56.60
76789;DHT22;65740;52.464;13.446;2023-10-09T10:49:04;17.30;58.20
76789;DHT22;65740;52.464;13.446;2023-10-09T10:51:39;17.30;59.30
76789;DHT22;65740;52.464;13.446;2023-10-09T10:54:05;17.30;58.90
76789;DHT22;65740;52.464;13.446;2023-10-09T10:56:50;17.30;58.90
76789;DHT22;65740;52.464;13.446;2023-10-09T10:59:18;17.40;58.60
76789;DHT22;65740;52.464;13.446;2023-10-09T11:01:53;17.40;58.20
76789;DHT22;65740;52.464;13.446;2023-10-09T11:04:23;17.40;57.90
76789;DHT22;65740;52.464;13.446;2023-10-09T11:06:56;17.40;57.50
76789;DHT22;65740;52.464;13.446;2023-10-09T11:09:46;17.40;57.50
76789;DHT22;65740;52.464;13.446;2023-10-09T11:12:28;17.50;58.20
76789;DHT22;65740;52.464;13.446;2023-10-09T11:15:14;17.50;58.70
76789;DHT22;65740;52.464;13.446;2023-10-09T11:17:59;17.50;58.90
76789;DHT22;65740;52.464;13.446;2023-10-09T11:20:31;17.60;59.40
76789;DHT22;65740;52.464;13.446;2023-10-09T11:22:58;17.60;58.70
76789;DHT22;65740;52.464;13.446;2023-10-09T11:25:37;17.60;58.50
76789;DHT22;65740;52.464;13.446;2023-10-09T11:28:17;17.60;58.10
76789;DHT22;65740;52.464;13.446;2023-10-09T11:33:53;17.60;57.70
76789;DHT22;65740;52.464;13.446;2023-10-09T11:36:20;17.60;57.70
76789;DHT22;65740;52.464;13.446;2023-10-09T11:38:57;17.60;57.70
76789;DHT22;65740;52.464;13.446;2023-10-09T11:41:42;17.60;57.70
76789;DHT22;65740;52.464;13.446;2023-10-09T11:44:07;17.70;57.80
76789;DHT22;65740;52.464;13.446;2023-10-09T11:47:00;17.60;57.70
76789;DHT22;65740;52.464;13.446;2023-10-09T11:50:02;17.60;57.70
76789;DHT22;65740;52.464;13.446;2023-10-09T11:52:32;17.70;57.70
76789;DHT22;65740;52.464;13.446;2023-10-09T11:55:01;17.70;57.80
76789;DHT22;65740;52.464;13.446;2023-10-09T11:57:28;17.70;57.70
76789;DHT22;65740;52.464;13.446;2023-10-09T12:00:03;17.70;57.70
76789;DHT22;65740;52.464;13.446;2023-10-09T12:02:52;17.70;57.70
76789;DHT22;65740;52.464;13.446;2023-10-09T12:05:18;17.80;57.80
76789;DHT22;65740;52.464;13.446;2023-10-09T12:07:47;17.80;57.90
76789;DHT22;65740;52.464;13.446;2023-10-09T12:10:21;17.70;57.60
76789;DHT22;65740;52.464;13.446;2023-10-09T12:12:52;17.80;57.70
76789;DHT22;65740;52.464;13.446;2023-10-09T12:15:17;17.70;57.50
76789;DHT22;65740;52.464;13.446;2023-10-09T12:17:45;17.80;57.70
76789;DHT22;65740;52.464;13.446;2023-10-09T12:20:14;17.80;57.50
76789;DHT22;65740;52.464;13.446;2023-10-09T12:23:04;17.80;57.40
76789;DHT22;65740;52.464;13.446;2023-10-09T12:25:31;17.80;57.50
76789;DHT22;65740;52.464;13.446;2023-10-09T12:27:58;17.80;57.50
76789;DHT22;65740;52.464;13.446;2023-10-09T12:30:25;17.80;57.50
76789;DHT22;65740;52.464;13.446;2023-10-09T12:32:55;17.80;57.50
76789;DHT22;65740;52.464;13.446;2023-10-09T12:35:25;17.80;57.50
76789;DHT22;65740;52.464;13.446;2023-10-09T12:37:53;17.80;57.40
76789;DHT22;65740;52.464;13.446;2023-10-09T12:40:23;17.80;57.30
76789;DHT22;65740;52.464;13.446;2023-10-09T12:42:51;17.80;57.30
76789;DHT22;65740;52.464;13.446;2023-10-09T12:45:21;17.80;57.40
76789;DHT22;65740;52.464;13.446;2023-10-09T12:47:54;17.80;57.20
76789;DHT22;65740;52.464;13.446;2023-10-09T12:50:34;17.80;57.20
76789;DHT22;65740;52.464;13.446;2023-10-09T12:53:07;17.80;57.10
76789;DHT22;65740;52.464;13.446;2023-10-09T12:55:37;17.80;57.30
76789;DHT22;65740;52.464;13.446;2023-10-09T12:58:06;17.80;57.20
76789;DHT22;65740;52.464;13.446;2023-10-09T13:00:36;17.80;57.10
76789;DHT22;65740;52.464;13.446;2023-10-09T13:03:06;17.80;57.60
76789;DHT22;65740;52.464;13.446;2023-10-09T13:05:51;17.80;57.00
76789;DHT22;65740;52.464;13.446;2023-10-09T13:08:35;17.70;56.90
76789;DHT22;65740;52.464;13.446;2023-10-09T13:11:06;17.70;56.90
76789;DHT22;65740;52.464;13.446;2023-10-09T13:13:43;17.70;56.90
76789;DHT22;65740;52.464;13.446;2023-10-09T13:16:19;17.80;57.30
76789;DHT22;65740;52.464;13.446;2023-10-09T13:18:54;17.80;57.40
76789;DHT22;65740;52.464;13.446;2023-10-09T13:21:25;17.80;57.40
76789;DHT22;65740;52.464;13.446;2023-10-09T13:24:03;17.80;57.40
76789;DHT22;65740;52.464;13.446;2023-10-09T13:26:29;17.80;57.50
76789;DHT22;65740;52.464;13.446;2023-10-09T13:29:01;17.90;57.60
76789;DHT22;65740;52.464;13.446;2023-10-09T13:31:27;17.90;57.60
76789;DHT22;65740;52.464;13.446;2023-10-09T13:33:57;17.90;57.60
76789;DHT22;65740;52.464;13.446;2023-10-09T13:36:25;17.90;57.30
76789;DHT22;65740;52.464;13.446;2023-10-09T13:38:54;17.90;57.40
76789;DHT22;65740;52.464;13.446;2023-10-09T13:41:21;17.90;57.30
76789;DHT22;65740;52.464;13.446;2023-10-09T13:43:47;17.90;57.40
76789;DHT22;65740;52.464;13.446;2023-10-09T13:46:17;17.90;57.30
76789;DHT22;65740;52.464;13.446;2023-10-09T13:48:43;17.90;57.20
76789;DHT22;65740;52.464;13.446;2023-10-09T13:51:12;17.90;57.20
76789;DHT22;65740;52.464;13.446;2023-10-09T13:53:44;17.90;57.20
76789;DHT22;65740;52.464;13.446;2023-10-09T13:56:20;17.90;57.20
76789;DHT22;65740;52.464;13.446;2023-10-09T13:58:50;17.90;57.10
76789;DHT22;65740;52.464;13.446;2023-10-09T14:01:19;17.90;57.20
76789;DHT22;65740;52.464;13.446;2023-10-09T14:03:58;17.90;57.10
76789;DHT22;65740;52.464;13.446;2023-10-09T14:06:24;17.90;57.40
76789;DHT22;65740;52.464;13.446;2023-10-09T14:09:04;17.90;57.10
76789;DHT22;65740;52.464;13.446;2023-10-09T14:11:33;17.90;56.80
76789;DHT22;65740;52.464;13.446;2023-10-09T14:14:03;17.90;56.80
76789;DHT22;65740;52.464;13.446;2023-10-09T14:16:29;17.90;56.80
76789;DHT22;65740;52.464;13.446;2023-10-09T14:18:58;17.90;56.80
76789;DHT22;65740;52.464;13.446;2023-10-09T14:21:26;17.90;56.90
76789;DHT22;65740;52.464;13.446;2023-10-09T14:23:58;17.90;57.00
76789;DHT22;65740;52.464;13.446;2023-10-09T14:26:28;17.90;56.90
76789;DHT22;65740;52.464;13.446;2023-10-09T14:28:55;17.90;56.90
76789;DHT22;65740;52.464;13.446;2023-10-09T14:31:23;17.90;57.50
76789;DHT22;65740;52.464;13.446;2023-10-09T14:33:55;17.90;56.80
76789;DHT22;65740;52.464;13.446;2023-10-09T14:36:22;17.90;56.70
76789;DHT22;65740;52.464;13.446;2023-10-09T14:38:49;17.90;56.70
76789;DHT22;65740;52.464;13.446;2023-10-09T14:41:19;17.90;56.70
76789;DHT22;65740;52.464;13.446;2023-10-09T14:43:47;17.90;56.70
76789;DHT22;65740;52.464;13.446;2023-10-09T14:46:14;17.90;56.70
76789;DHT22;65740;52.464;13.446;2023-10-09T14:48:39;17.90;56.70
76789;DHT22;65740;52.464;13.446;2023-10-09T14:51:06;17.90;56.80
76789;DHT22;65740;52.464;13.446;2023-10-09T14:53:36;17.90;56.50
76789;DHT22;65740;52.464;13.446;2023-10-09T14:56:01;17.90;56.90
76789;DHT22;65740;52.464;13.446;2023-10-09T14:58:34;17.90;57.00
76789;DHT22;65740;52.464;13.446;2023-10-09T15:01:12;17.90;57.10
76789;DHT22;65740;52.464;13.446;2023-10-09T15:03:40;17.90;57.30
76789;DHT22;65740;52.464;13.446;2023-10-09T15:06:08;18.00;57.10
76789;DHT22;65740;52.464;13.446;2023-10-09T15:08:36;18.00;57.10
76789;DHT22;65740;52.464;13.446;2023-10-09T15:11:02;18.00;57.00
76789;DHT22;65740;52.464;13.446;2023-10-09T15:13:28;18.00;57.70
76789;DHT22;65740;52.464;13.446;2023-10-09T15:15:55;17.90;56.90
76789;DHT22;65740;52.464;13.446;2023-10-09T15:18:21;18.00;57.10
76789;DHT22;65740;52.464;13.446;2023-10-09T15:20:48;17.90;56.90
76789;DHT22;65740;52.464;13.446;2023-10-09T15:23:14;17.90;56.90
76789;DHT22;65740;52.464;13.446;2023-10-09T15:25:40;18.00;56.90
76789;DHT22;65740;52.464;13.446;2023-10-09T15:28:08;17.90;56.90
76789;DHT22;65740;52.464;13.446;2023-10-09T15:30:35;17.90;56.90
76789;DHT22;65740;52.464;13.446;2023-10-09T15:33:04;17.90;56.80
76789;DHT22;65740;52.464;13.446;2023-10-09T15:35:31;17.90;56.80
76789;DHT22;65740;52.464;13.446;2023-10-09T15:38:02;18.00;57.10
76789;DHT22;65740;52.464;13.446;2023-10-09T15:40:32;17.90;57.00
76789;DHT22;65740;52.464;13.446;2023-10-09T15:43:02;17.90;56.90
76789;DHT22;65740;52.464;13.446;2023-10-09T15:45:30;17.90;57.60
76789;DHT22;65740;52.464;13.446;2023-10-09T15:47:57;17.90;56.80
76789;DHT22;65740;52.464;13.446;2023-10-09T15:50:25;17.90;56.80
76789;DHT22;65740;52.464;13.446;2023-10-09T15:52:54;17.90;56.70
76789;DHT22;65740;52.464;13.446;2023-10-09T15:55:21;17.90;56.80
76789;DHT22;65740;52.464;13.446;2023-10-09T15:57:50;17.90;56.50
76789;DHT22;65740;52.464;13.446;2023-10-09T16:00:24;17.90;56.60
76789;DHT22;65740;52.464;13.446;2023-10-09T16:02:56;17.90;56.60
76789;DHT22;65740;52.464;13.446;2023-10-09T16:05:22;17.80;57.10
76789;DHT22;65740;52.464;13.446;2023-10-09T16:07:52;17.90;57.10